Time;durP1;ratioP1;P1;durP2;ratioP2;P2;SDS_P1;SDS_P2;PMS_P1;PMS_P2;Temp;Humidity;BMP_temperature;BMP_pressure;BME280_temperature;BME280_humidity;BME280_pressure;Samples;Min_cycle;Max_cycle;Signal;HPM_P1;HPM_P2
2023/07/23 00:01:30;;;;;;;5.50;2.60;;;;;;;18.82;71.17;100212.80;108403;1257;64891;-90
2023/07/23 00:04:05;;;;;;;4.80;2.20;;;;;;;18.81;71.34;100213.76;108337;1254;61381;-91
2023/07/23 00:06:33;;;;;;;5.30;2.10;;;;;;;18.83;71.52;100216.52;108061;1254;62518;-90
2023/07/23 00:09:04;;;;;;;4.10;2.30;;;;;;;18.88;71.59;100218.42;108280;1253;59274;-90
2023/07/23 00:11:31;;;;;;;4.80;2.20;;;;;;;18.93;71.47;100212.77;108225;1253;58456;-89
2023/07/23 00:14:03;;;;;;;5.40;2.30;;;;;;;18.97;71.23;100212.65;108451;1253;63952;-89
2023/07/23 00:16:33;;;;;;;5.50;2.80;;;;;;;18.94;70.87;100213.01;108589;1253;61040;-90
2023/07/23 00:19:06;;;;;;;8.10;2.50;;;;;;;18.84;70.91;100216.30;108505;1252;65910;-90
2023/07/23 00:21:38;;;;;;;5.10;2.00;;;;;;;18.71;71.06;100214.98;108548;1254;58159;-90
2023/07/23 00:24:07;;;;;;;4.60;2.50;;;;;;;18.62;71.39;100216.36;108473;1253;59094;-89
2023/07/23 00:27:00;;;;;;;4.60;2.10;;;;;;;18.57;71.69;100214.16;108421;1252;64490;-90
2023/07/23 00:29:28;;;;;;;4.50;2.20;;;;;;;18.58;71.88;100215.73;107937;1257;61353;-90
2023/07/23 00:32:24;;;;;;;4.40;2.20;;;;;;;18.60;71.97;100219.05;108610;1253;63729;-90
2023/07/23 00:34:51;;;;;;;4.80;2.30;;;;;;;18.62;71.89;100217.42;108200;1254;59064;-90
2023/07/23 00:37:19;;;;;;;4.10;1.80;;;;;;;18.63;72.15;100219.05;109263;1253;58260;-90
2023/07/23 00:39:46;;;;;;;5.30;2.20;;;;;;;18.67;72.14;100220.16;108365;1254;65640;-91
2023/07/23 00:42:19;;;;;;;4.20;2.10;;;;;;;18.74;72.28;100220.13;108309;1259;69768;-91
2023/07/23 00:44:46;;;;;;;5.40;2.40;;;;;;;18.80;71.87;100219.27;108170;1253;72744;-90
2023/07/23 00:47:14;;;;;;;5.30;2.30;;;;;;;18.85;71.92;100220.41;107905;1252;60446;-90
2023/07/23 00:49:42;;;;;;;6.80;2.10;;;;;;;18.91;71.99;100225.39;108414;1252;58280;-90
2023/07/23 00:52:25;;;;;;;4.80;2.50;;;;;;;18.90;71.51;100229.23;108436;1253;67765;-90
2023/07/23 00:54:53;;;;;;;5.80;2.10;;;;;;;18.82;71.24;100236.38;108126;1252;60465;-91
2023/07/23 00:57:24;;;;;;;5.10;2.20;;;;;;;18.76;71.21;100236.33;108299;1254;62479;-90
2023/07/23 00:59:51;;;;;;;7.40;2.40;;;;;;;18.71;71.31;100234.08;108227;1252;58965;-90
2023/07/23 01:02:19;;;;;;;4.50;1.70;;;;;;;18.67;71.18;100233.30;108191;1254;60443;-90
2023/07/23 01:04:47;;;;;;;7.70;2.20;;;;;;;18.65;71.16;100237.64;108314;1252;64027;-91
2023/07/23 01:07:14;;;;;;;4.90;1.90;;;;;;;18.64;71.30;100241.81;108149;1253;62509;-89
2023/07/23 01:09:45;;;;;;;4.20;1.80;;;;;;;18.66;71.35;100238.91;108548;1254;62548;-91
2023/07/23 01:12:14;;;;;;;5.30;1.50;;;;;;;18.70;71.30;100241.64;108167;1254;60620;-91
2023/07/23 01:14:42;;;;;;;4.10;1.90;;;;;;;18.77;71.48;100243.17;108574;1253;58299;-90
2023/07/23 01:17:09;;;;;;;10.40;1.80;;;;;;;18.81;71.22;100240.54;108496;1252;64861;-91
2023/07/23 01:19:37;;;;;;;6.00;1.70;;;;;;;18.85;70.91;100235.88;108196;1254;69262;-90
2023/07/23 01:22:06;;;;;;;4.80;1.70;;;;;;;18.94;70.53;100238.27;108267;1252;63760;-90
2023/07/23 01:24:37;;;;;;;4.30;1.70;;;;;;;19.03;69.95;100240.92;108532;1253;58357;-85
2023/07/23 01:27:05;;;;;;;6.30;1.70;;;;;;;19.09;69.56;100244.12;108380;1254;58383;-84
2023/07/23 01:29:32;;;;;;;3.80;1.50;;;;;;;19.12;69.16;100246.59;108322;1253;75346;-84
2023/07/23 01:32:01;;;;;;;4.10;1.70;;;;;;;19.14;68.93;100249.00;108208;1253;61442;-85
2023/07/23 01:34:29;;;;;;;5.30;1.50;;;;;;;19.17;68.67;100247.60;108108;1254;62832;-89
2023/07/23 01:36:57;;;;;;;5.30;1.60;;;;;;;19.18;68.31;100245.92;108193;1254;60362;-89
2023/07/23 01:39:24;;;;;;;5.20;1.30;;;;;;;19.17;68.17;100250.77;108176;1254;59549;-89
2023/07/23 01:41:52;;;;;;;2.60;0.90;;;;;;;19.17;67.91;100249.41;108265;1254;65571;-90
2023/07/23 01:44:20;;;;;;;2.70;1.00;;;;;;;19.17;67.74;100253.11;108353;1254;70771;-90
2023/07/23 01:46:47;;;;;;;2.70;1.10;;;;;;;19.18;67.57;100255.70;108129;1254;72009;-90
2023/07/23 01:49:15;;;;;;;2.80;1.20;;;;;;;19.17;67.67;100255.44;108195;1254;59043;-90
2023/07/23 01:51:49;;;;;;;3.40;1.50;;;;;;;19.14;67.72;100259.30;108131;1254;60364;-89
2023/07/23 01:54:19;;;;;;;3.00;1.10;;;;;;;19.12;67.83;100263.66;107984;1254;63717;-88
2023/07/23 01:56:47;;;;;;;4.40;1.30;;;;;;;19.05;67.59;100269.59;108233;1254;60312;-91
2023/07/23 01:59:22;;;;;;;3.80;1.10;;;;;;;19.02;67.67;100275.95;108127;1254;63764;-90
2023/07/23 02:01:49;;;;;;;4.20;1.30;;;;;;;19.04;67.51;100274.52;108126;1254;58464;-90
2023/07/23 02:04:19;;;;;;;2.90;1.30;;;;;;;19.07;67.50;100272.93;108236;1256;60351;-90
2023/07/23 02:06:48;;;;;;;4.50;1.50;;;;;;;19.10;67.31;100271.14;108131;1254;64996;-90
2023/07/23 02:09:17;;;;;;;5.40;1.80;;;;;;;19.11;67.37;100274.02;108458;1259;61356;-89
2023/07/23 02:11:47;;;;;;;4.50;1.30;;;;;;;19.14;67.35;100271.65;108213;1254;66036;-89
2023/07/23 02:14:20;;;;;;;2.90;1.30;;;;;;;19.13;67.36;100267.08;108206;1254;60357;-90
2023/07/23 02:16:48;;;;;;;8.20;1.80;;;;;;;19.14;67.21;100269.43;107995;1254;59265;-90
2023/07/23 02:19:16;;;;;;;3.10;1.10;;;;;;;19.16;66.93;100272.30;108238;1254;65211;-91
2023/07/23 02:21:44;;;;;;;4.20;1.40;;;;;;;19.16;66.65;100271.92;108477;1254;61519;-90
2023/07/23 02:24:11;;;;;;;4.40;1.50;;;;;;;19.15;66.51;100271.13;108232;1252;63002;-90
2023/07/23 02:26:39;;;;;;;4.00;1.30;;;;;;;19.12;66.68;100267.15;108493;1254;60169;-90
2023/07/23 02:29:06;;;;;;;4.00;1.50;;;;;;;19.07;66.77;100272.54;108387;1252;59306;-90
2023/07/23 02:31:34;;;;;;;3.30;1.40;;;;;;;19.05;66.96;100274.97;108234;1252;65009;-90
2023/07/23 02:34:02;;;;;;;3.70;1.40;;;;;;;19.04;67.02;100281.27;108528;1258;60310;-90
2023/07/23 02:36:30;;;;;;;4.50;1.70;;;;;;;19.06;67.10;100282.36;108637;1252;63742;-90
2023/07/23 02:39:01;;;;;;;4.50;1.90;;;;;;;19.09;67.03;100280.73;108068;1254;58374;-91
2023/07/23 02:41:40;;;;;;;3.70;1.70;;;;;;;19.11;66.91;100274.90;108405;1254;59473;-90
2023/07/23 02:44:08;;;;;;;4.00;1.80;;;;;;;19.11;66.78;100274.43;108360;1252;64906;-91
2023/07/23 02:46:35;;;;;;;3.60;1.80;;;;;;;19.10;66.67;100280.20;108418;1253;61350;-90
2023/07/23 02:49:04;;;;;;;3.10;1.30;;;;;;;19.10;66.65;100287.65;108151;1253;72172;-89
2023/07/23 02:51:36;;;;;;;3.10;1.40;;;;;;;19.11;66.69;100295.37;108039;1252;60454;-89
2023/07/23 02:54:08;;;;;;;3.90;1.60;;;;;;;19.09;66.79;100300.05;108429;1256;59244;-90
2023/07/23 02:57:01;;;;;;;3.80;1.70;;;;;;;19.08;66.89;100296.92;108286;1253;64920;-90
2023/07/23 02:59:28;;;;;;;3.90;1.90;;;;;;;19.09;66.83;100301.70;108530;1253;72521;-90
2023/07/23 03:01:55;;;;;;;3.50;1.60;;;;;;;19.09;66.86;100304.93;108179;1254;65062;-90
2023/07/23 03:04:30;;;;;;;3.60;1.60;;;;;;;19.00;66.99;100310.36;108203;1255;60532;-90
2023/07/23 03:06:58;;;;;;;3.50;1.70;;;;;;;18.93;67.09;100311.77;108421;1253;59221;-89
2023/07/23 03:09:26;;;;;;;3.90;1.70;;;;;;;18.88;67.29;100316.69;108541;1253;64141;-90
2023/07/23 03:11:55;;;;;;;6.20;1.80;;;;;;;18.85;67.60;100323.02;108249;1254;61482;-89
2023/07/23 03:14:22;;;;;;;3.90;1.70;;;;;;;18.83;67.95;100329.18;108321;1254;66975;-88
2023/07/23 03:16:52;;;;;;;3.80;1.60;;;;;;;18.87;68.09;100330.37;108589;1254;59755;-89
2023/07/23 03:19:20;;;;;;;4.40;1.80;;;;;;;18.87;67.86;100328.48;108223;1252;60429;-90
2023/07/23 03:21:51;;;;;;;4.00;1.80;;;;;;;18.85;68.06;100334.84;108387;1252;64971;-90
2023/07/23 03:24:19;;;;;;;4.00;1.80;;;;;;;18.84;68.17;100338.77;108321;1253;61593;-90
2023/07/23 03:26:47;;;;;;;4.90;2.20;;;;;;;18.81;68.17;100335.84;108377;1253;72832;-90
2023/07/23 03:29:25;;;;;;;4.10;2.00;;;;;;;18.82;68.39;100338.44;108445;1256;60467;-90
2023/07/23 03:31:53;;;;;;;6.60;2.10;;;;;;;18.85;68.41;100342.38;108222;1254;58380;-88
2023/07/23 03:34:24;;;;;;;5.20;2.50;;;;;;;18.90;68.63;100348.00;108265;1253;63712;-89
2023/07/23 03:36:54;;;;;;;5.00;2.20;;;;;;;18.94;68.72;100352.96;108256;1253;61427;-89
2023/07/23 03:39:25;;;;;;;5.40;2.40;;;;;;;18.96;68.58;100354.63;108483;1254;64055;-90
2023/07/23 03:41:52;;;;;;;5.90;2.60;;;;;;;18.95;68.70;100353.96;108641;1253;60441;-89
2023/07/23 03:44:20;;;;;;;6.80;3.30;;;;;;;18.97;68.72;100356.29;108656;1254;58511;-89
2023/07/23 03:47:03;;;;;;;5.90;2.50;;;;;;;18.98;68.51;100355.89;108391;1254;63735;-89
2023/07/23 03:49:35;;;;;;;5.80;2.10;;;;;;;18.99;68.43;100355.97;108223;1253;61382;-90
2023/07/23 03:52:04;;;;;;;5.10;2.30;;;;;;;19.00;68.47;100356.92;108450;1253;64304;-90
2023/07/23 03:54:35;;;;;;;4.30;2.10;;;;;;;19.05;68.64;100360.17;108528;1254;58440;-90
2023/07/23 03:57:03;;;;;;;5.80;2.20;;;;;;;19.11;68.85;100358.34;108546;1254;60478;-90
2023/07/23 03:59:43;;;;;;;4.20;1.90;;;;;;;19.16;68.69;100362.56;108525;1254;66710;-90
2023/07/23 04:02:10;;;;;;;6.80;2.20;;;;;;;19.21;68.78;100360.27;108405;1252;60123;-89
2023/07/23 04:04:39;;;;;;;9.50;2.40;;;;;;;19.25;68.52;100362.46;108541;1252;62815;-91
2023/07/23 04:07:07;;;;;;;4.20;2.30;;;;;;;19.26;68.14;100365.29;108656;1254;58219;-90
2023/07/23 04:09:37;;;;;;;3.90;2.00;;;;;;;19.26;68.05;100364.55;108768;1253;58564;-90
2023/07/23 04:12:09;;;;;;;4.50;2.50;;;;;;;19.27;68.05;100364.10;108600;1253;65710;-89
2023/07/23 04:14:42;;;;;;;5.90;2.40;;;;;;;19.28;67.98;100361.83;108350;1253;62140;-90
2023/07/23 04:17:11;;;;;;;5.40;2.30;;;;;;;19.26;68.10;100363.48;108580;1253;63865;-90
2023/07/23 04:19:43;;;;;;;4.90;2.70;;;;;;;19.24;68.21;100364.11;108620;1254;60310;-90
2023/07/23 04:22:12;;;;;;;4.80;2.40;;;;;;;19.23;68.13;100365.77;108442;1254;58716;-89
2023/07/23 04:24:42;;;;;;;4.40;2.70;;;;;;;19.27;68.23;100368.02;108252;1252;65498;-90
2023/07/23 04:27:18;;;;;;;5.10;3.00;;;;;;;19.31;68.24;100368.77;108373;1253;63110;-89
2023/07/23 04:29:48;;;;;;;4.90;2.70;;;;;;;19.33;68.29;100368.95;108457;1257;63895;-89
2023/07/23 04:32:15;;;;;;;5.40;2.70;;;;;;;19.32;68.20;100368.20;108565;1254;58341;-90
2023/07/23 04:34:43;;;;;;;5.00;3.00;;;;;;;19.29;68.41;100359.83;108439;1252;60422;-88
2023/07/23 04:37:13;;;;;;;6.10;2.60;;;;;;;19.27;68.42;100362.91;107839;1253;65869;-90
2023/07/23 04:39:43;;;;;;;4.60;2.60;;;;;;;19.26;68.36;100362.61;108272;1254;61423;-90
2023/07/23 04:42:13;;;;;;;7.00;2.90;;;;;;;19.29;68.56;100354.75;108328;1254;63852;-90
2023/07/23 04:44:44;;;;;;;5.70;2.60;;;;;;;19.36;68.53;100355.05;107988;1256;60542;-89
2023/07/23 04:47:15;;;;;;;4.40;2.80;;;;;;;19.42;68.58;100356.27;108136;1252;60451;-90
2023/07/23 04:49:42;;;;;;;4.70;2.70;;;;;;;19.50;68.56;100357.65;108503;1253;74056;-89
2023/07/23 04:52:10;;;;;;;4.90;2.80;;;;;;;19.60;68.49;100362.07;108258;1253;62254;-89
2023/07/23 04:54:39;;;;;;;5.80;2.90;;;;;;;19.63;68.12;100364.30;108519;1254;63694;-90
2023/07/23 04:57:09;;;;;;;6.80;3.30;;;;;;;19.64;68.05;100367.26;108469;1253;58225;-90
2023/07/23 04:59:37;;;;;;;6.10;2.90;;;;;;;19.70;68.01;100365.13;108298;1258;59414;-90
2023/07/23 05:02:07;;;;;;;9.10;2.60;;;;;;;19.79;67.86;100368.67;108659;1254;63702;-90
2023/07/23 05:04:34;;;;;;;5.40;2.90;;;;;;;19.84;67.43;100360.97;108365;1254;61361;-90
2023/07/23 05:07:02;;;;;;;6.80;3.60;;;;;;;19.91;67.03;100361.88;108378;1254;63734;-90
2023/07/23 05:09:29;;;;;;;5.90;3.10;;;;;;;19.99;66.62;100360.92;108063;1254;60653;-90
2023/07/23 05:11:57;;;;;;;4.80;2.90;;;;;;;20.01;66.40;100365.14;108565;1254;58436;-86
2023/07/23 05:14:24;;;;;;;4.70;3.00;;;;;;;20.03;66.65;100363.54;108553;1253;64870;-85
2023/07/23 05:16:53;;;;;;;5.70;2.70;;;;;;;20.14;66.85;100361.62;108213;1253;61272;-86
2023/07/23 05:19:21;;;;;;;5.00;3.20;;;;;;;20.25;66.68;100359.29;108198;1253;65389;-86
2023/07/23 05:21:54;;;;;;;4.90;2.80;;;;;;;20.35;66.31;100357.02;108238;1252;60623;-85
2023/07/23 05:24:23;;;;;;;5.70;3.30;;;;;;;20.43;65.32;100358.48;108448;1254;58303;-85
2023/07/23 05:27:19;;;;;;;5.30;3.00;;;;;;;20.47;65.11;100355.36;108279;1252;63655;-86
2023/07/23 05:29:46;;;;;;;4.90;2.80;;;;;;;20.51;65.00;100356.45;108346;1254;61450;-85
2023/07/23 05:32:18;;;;;;;5.20;3.00;;;;;;;20.53;64.63;100356.98;108036;1254;63796;-86
2023/07/23 05:34:46;;;;;;;6.10;3.30;;;;;;;20.58;64.28;100357.02;108337;1254;60539;-86
2023/07/23 05:37:13;;;;;;;4.90;2.80;;;;;;;20.64;64.16;100355.64;108150;1253;327731;-86
2023/07/23 05:41:10;;;;;;;5.70;3.20;;;;;;;20.55;64.80;100348.91;103117;1293;600712;-85
2023/07/23 05:43:38;;;;;;;5.20;3.20;;;;;;;20.82;63.89;100346.25;105184;1270;59330;-88
2023/07/23 05:46:05;;;;;;;7.00;3.30;;;;;;;20.93;63.03;100342.08;105643;1266;59273;-87
2023/07/23 05:48:32;;;;;;;5.60;3.30;;;;;;;21.04;62.91;100344.06;105459;1267;62046;-86
2023/07/23 05:51:00;;;;;;;5.80;3.40;;;;;;;21.15;62.60;100345.31;105589;1267;61344;-88
2023/07/23 05:53:27;;;;;;;5.20;3.00;;;;;;;21.25;61.70;100351.36;105032;1267;63732;-87
2023/07/23 05:55:55;;;;;;;4.40;2.80;;;;;;;21.29;61.25;100348.99;105174;1266;203782;-90
2023/07/23 05:58:24;;;;;;;5.10;3.20;;;;;;;21.28;61.43;100351.71;106459;1252;59064;-86
2023/07/23 06:00:52;;;;;;;6.70;3.20;;;;;;;21.28;61.56;100355.24;106448;1253;63336;-91
2023/07/23 06:11:55;;;;;;;5.70;3.30;;;;;;;21.44;61.41;100362.08;106328;1254;59723;-87
2023/07/23 06:27:58;;;;;;;5.80;3.40;;;;;;;21.35;62.11;100360.56;106429;1254;63714;-90
2023/07/23 06:30:28;;;;;;;7.10;3.40;;;;;;;21.45;61.64;100356.74;106253;1259;59666;-89
2023/07/23 06:32:56;;;;;;;7.40;3.60;;;;;;;21.57;61.04;100353.84;108480;1254;57379;-87
2023/07/23 06:35:24;;;;;;;6.50;3.70;;;;;;;21.68;61.16;100355.67;108557;1254;62827;-84
2023/07/23 06:37:52;;;;;;;6.00;4.00;;;;;;;21.76;61.23;100356.02;108964;1254;60114;-87
2023/07/23 06:40:19;;;;;;;6.10;3.70;;;;;;;21.80;60.96;100356.05;109008;1254;62522;-84
2023/07/23 06:42:48;;;;;;;8.70;4.10;;;;;;;21.83;60.75;100356.02;109275;1254;57706;-84
2023/07/23 06:45:16;;;;;;;5.10;3.10;;;;;;;21.91;60.97;100358.62;109149;1253;59583;-87
2023/07/23 06:47:43;;;;;;;6.80;3.60;;;;;;;22.03;60.37;100361.48;109310;1253;62832;-88
2023/07/23 06:50:17;;;;;;;6.30;3.50;;;;;;;22.15;59.82;100357.48;109224;1254;60392;-85
2023/07/23 06:52:45;;;;;;;6.20;4.00;;;;;;;22.25;59.76;100360.27;109196;1254;63668;-84
2023/07/23 06:55:13;;;;;;;5.70;3.60;;;;;;;22.36;59.24;100363.17;109267;1254;57402;-86
2023/07/23 06:57:40;;;;;;;6.40;3.40;;;;;;;22.41;58.40;100363.61;109189;1253;57563;-84
2023/07/23 07:00:08;;;;;;;5.00;3.20;;;;;;;22.42;58.32;100359.53;108326;1253;64147;-87
2023/07/23 07:02:36;;;;;;;6.00;3.80;;;;;;;22.46;58.42;100358.18;107796;1254;61385;-87
2023/07/23 07:05:05;;;;;;;5.40;3.30;;;;;;;22.51;58.04;100353.33;108775;1254;62523;-87
2023/07/23 07:07:32;;;;;;;6.50;4.20;;;;;;;22.59;57.89;100359.50;107288;1254;59564;-86
2023/07/23 07:09:59;;;;;;;5.60;3.80;;;;;;;22.61;57.94;100360.64;106343;1254;59786;-87
2023/07/23 07:12:27;;;;;;;5.80;3.70;;;;;;;22.60;58.05;100359.40;107009;1256;62877;-83
2023/07/23 07:14:54;;;;;;;6.00;4.10;;;;;;;22.63;58.11;100358.60;106584;1254;60168;-90
2023/07/23 07:17:22;;;;;;;6.90;4.10;;;;;;;22.67;58.03;100357.15;106749;1255;63775;-88
2023/07/23 07:19:49;;;;;;;6.10;4.10;;;;;;;22.69;57.83;100354.02;106586;1256;59743;-88
2023/07/23 07:22:17;;;;;;;6.00;3.60;;;;;;;22.73;57.83;100355.40;106448;1254;59720;-89
2023/07/23 07:24:44;;;;;;;5.10;3.50;;;;;;;22.79;57.69;100355.33;109262;1254;62865;-88
2023/07/23 07:27:12;;;;;;;5.90;3.60;;;;;;;22.84;57.71;100357.40;108865;1254;60302;-85
2023/07/23 07:29:40;;;;;;;7.90;3.80;;;;;;;22.92;57.78;100363.14;106724;1254;63747;-88
2023/07/23 07:32:07;;;;;;;7.20;4.00;;;;;;;23.00;56.68;100363.95;106470;1254;59660;-90
2023/07/23 07:34:35;;;;;;;5.20;3.40;;;;;;;23.00;56.09;100359.15;105994;1260;59577;-87
2023/07/23 07:37:02;;;;;;;6.10;3.90;;;;;;;23.02;56.52;100360.36;106069;1254;64178;-89
2023/07/23 07:39:30;;;;;;;5.70;3.40;;;;;;;23.08;56.41;100360.09;106487;1254;60133;-86
2023/07/23 07:41:57;;;;;;;5.70;3.60;;;;;;;23.17;56.82;100367.16;108485;1254;62476;-88
2023/07/23 07:44:25;;;;;;;5.20;3.30;;;;;;;23.22;56.11;100366.82;108261;1254;59244;-81
2023/07/23 07:46:53;;;;;;;5.60;4.00;;;;;;;23.22;56.11;100369.88;109233;1256;57508;-91
2023/07/23 07:49:20;;;;;;;5.90;3.60;;;;;;;23.22;56.07;100369.42;109235;1255;64107;-85
2023/07/23 07:51:48;;;;;;;5.80;3.60;;;;;;;23.25;56.16;100374.52;109264;1254;61409;-82
2023/07/23 07:54:16;;;;;;;5.20;3.40;;;;;;;23.25;56.20;100377.60;109218;1254;62539;-85
2023/07/23 07:56:43;;;;;;;7.00;3.40;;;;;;;23.25;56.54;100374.17;109022;1254;57370;-82
2023/07/23 07:59:11;;;;;;;6.20;4.30;;;;;;;23.30;56.31;100378.80;108574;1254;59403;-83
2023/07/23 08:01:39;;;;;;;7.10;3.70;;;;;;;23.36;55.45;100376.61;108699;1256;63010;-85
2023/07/23 08:04:09;;;;;;;6.20;3.90;;;;;;;23.39;55.50;100377.98;108612;1254;61509;-87
2023/07/23 08:06:37;;;;;;;6.00;3.80;;;;;;;23.42;55.43;100376.52;108470;1259;63729;-83
2023/07/23 08:09:05;;;;;;;6.10;3.40;;;;;;;23.49;55.45;100376.85;108751;1253;59663;-82
2023/07/23 08:11:33;;;;;;;5.80;3.30;;;;;;;23.59;54.81;100377.08;106061;1254;59568;-86
2023/07/23 08:14:00;;;;;;;9.00;3.80;;;;;;;23.67;53.96;100376.41;105983;1259;64112;-91
2023/07/23 08:16:28;;;;;;;5.40;3.50;;;;;;;23.71;53.22;100375.09;105924;1254;61340;-86
2023/07/23 08:18:56;;;;;;;6.70;3.70;;;;;;;23.76;53.65;100372.97;106360;1254;62439;-85
2023/07/23 08:21:24;;;;;;;6.20;4.20;;;;;;;23.85;53.63;100375.89;106535;1254;59810;-90
2023/07/23 08:23:52;;;;;;;5.80;4.00;;;;;;;23.93;53.64;100373.73;106848;1256;59554;-89
2023/07/23 08:26:20;;;;;;;5.70;4.00;;;;;;;24.00;52.98;100381.09;106130;1254;62957;-86
2023/07/23 08:28:51;;;;;;;6.50;3.90;;;;;;;24.02;52.66;100381.70;107004;1254;60127;-90
2023/07/23 08:31:19;;;;;;;7.50;4.30;;;;;;;24.03;52.01;100382.48;106349;1256;63736;-86
2023/07/23 08:33:50;;;;;;;6.00;4.00;;;;;;;24.03;52.01;100386.41;105971;1259;59714;-84
2023/07/23 08:36:18;;;;;;;17.80;4.60;;;;;;;24.04;51.65;100389.29;106239;1254;59692;-83
2023/07/23 08:38:45;;;;;;;7.30;4.40;;;;;;;24.05;51.43;100390.74;105857;1254;62970;-85
2023/07/23 08:41:28;;;;;;;5.90;3.80;;;;;;;24.06;52.15;100388.84;106039;1254;60288;-92
2023/07/23 08:44:12;;;;;;;6.10;4.20;;;;;;;24.08;51.87;100387.42;106797;1254;62451;-85
2023/07/23 08:46:46;;;;;;;5.70;4.00;;;;;;;24.13;51.39;100381.95;106353;1253;59739;-86
2023/07/23 08:49:17;;;;;;;5.50;3.90;;;;;;;24.20;50.85;100379.57;105901;1257;59668;-85
2023/07/23 08:51:46;;;;;;;5.70;3.70;;;;;;;24.25;50.87;100379.17;106218;1254;63143;-83
2023/07/23 08:54:15;;;;;;;5.50;4.00;;;;;;;24.29;50.71;100377.53;106729;1253;60229;-87
2023/07/23 08:56:43;;;;;;;6.50;3.80;;;;;;;24.30;49.54;100378.98;106064;1253;62960;-88
2023/07/23 08:59:12;;;;;;;6.30;4.60;;;;;;;24.29;49.61;100380.77;106665;1253;59742;-87
2023/07/23 09:01:40;;;;;;;6.40;4.50;;;;;;;24.30;49.70;100377.99;106221;1254;59695;-83
2023/07/23 09:04:11;;;;;;;6.30;4.10;;;;;;;24.31;50.17;100378.36;106586;1254;64021;-87
2023/07/23 09:06:42;;;;;;;6.00;4.40;;;;;;;24.36;50.11;100376.65;107135;1253;61547;-88
2023/07/23 09:09:11;;;;;;;5.90;4.50;;;;;;;24.41;49.68;100382.33;106390;1254;62500;-86
2023/07/23 09:11:39;;;;;;;6.10;3.90;;;;;;;24.48;49.53;100379.77;107703;1254;59339;-88
2023/07/23 09:14:08;;;;;;;7.40;4.00;;;;;;;24.56;49.66;100379.21;106190;1257;59525;-87
2023/07/23 09:16:38;;;;;;;6.00;3.60;;;;;;;24.62;49.87;100382.70;107225;1253;64484;-88
2023/07/23 09:19:07;;;;;;;6.30;4.20;;;;;;;24.71;49.96;100379.89;109160;1253;61491;-86
2023/07/23 09:21:35;;;;;;;6.70;4.30;;;;;;;24.80;50.06;100380.75;109120;1254;62477;-85
2023/07/23 09:24:05;;;;;;;6.40;4.50;;;;;;;24.88;49.81;100384.08;109182;1254;57357;-81
2023/07/23 09:26:32;;;;;;;6.50;3.80;;;;;;;24.93;48.69;100383.02;109192;1254;57512;-84
2023/07/23 09:29:00;;;;;;;6.40;4.50;;;;;;;24.95;46.82;100384.33;107979;1254;64207;-86
2023/07/23 09:31:29;;;;;;;7.30;4.40;;;;;;;24.95;46.49;100384.20;107752;1253;61444;-89
2023/07/23 09:33:59;;;;;;;5.90;4.00;;;;;;;24.94;46.79;100383.71;109108;1254;64103;-88
2023/07/23 09:36:27;;;;;;;7.50;4.00;;;;;;;24.95;46.72;100383.74;109214;1254;57383;-87
2023/07/23 09:38:59;;;;;;;6.60;4.30;;;;;;;24.95;46.49;100385.27;108010;1254;59704;-86
2023/07/23 09:41:29;;;;;;;6.40;4.10;;;;;;;24.95;46.01;100385.45;108903;1254;72854;-87
2023/07/23 09:43:58;;;;;;;6.90;4.10;;;;;;;24.96;46.27;100386.56;108330;1254;61296;-85
2023/07/23 09:46:26;;;;;;;6.50;4.30;;;;;;;24.99;46.65;100384.13;107281;1254;62459;-84
2023/07/23 09:48:53;;;;;;;7.40;4.10;;;;;;;25.03;45.82;100384.97;106506;1254;59733;-87
2023/07/23 09:51:21;;;;;;;5.40;3.30;;;;;;;25.07;45.98;100382.83;105911;1254;59759;-90
2023/07/23 09:53:49;;;;;;;5.50;3.60;;;;;;;25.11;45.81;100377.26;105903;1254;64156;-91
2023/07/23 09:56:18;;;;;;;6.50;3.90;;;;;;;25.12;45.21;100377.70;106567;1254;61377;-93
2023/07/23 09:58:48;;;;;;;6.00;3.50;;;;;;;25.06;44.65;100379.70;106098;1259;63661;-86
2023/07/23 10:01:16;;;;;;;5.40;4.00;;;;;;;24.96;45.07;100386.35;106290;1254;60571;-92
2023/07/23 10:03:44;;;;;;;5.50;3.70;;;;;;;24.84;45.89;100383.89;105737;1254;60525;-90
2023/07/23 10:06:12;;;;;;;8.00;4.20;;;;;;;24.77;46.66;100387.75;105841;1256;64915;-90
2023/07/23 10:08:42;;;;;;;5.90;4.20;;;;;;;24.74;47.23;100390.88;106831;1254;60405;-85
2023/07/23 10:11:13;;;;;;;5.60;3.80;;;;;;;24.74;47.31;100395.35;105778;1254;63687;-85
2023/07/23 10:13:41;;;;;;;6.00;3.80;;;;;;;24.80;47.70;100391.67;106453;1257;60574;-87
2023/07/23 10:16:13;;;;;;;6.60;4.20;;;;;;;24.93;47.92;100390.39;106606;1254;60540;-86
2023/07/23 10:18:41;;;;;;;6.10;3.90;;;;;;;25.10;45.89;100386.74;105744;1254;65037;-87
2023/07/23 10:21:09;;;;;;;6.70;4.10;;;;;;;25.23;44.74;100385.89;105958;1259;60400;-83
2023/07/23 10:23:38;;;;;;;6.10;4.10;;;;;;;25.36;43.94;100383.50;106061;1258;63716;-87
2023/07/23 10:26:28;;;;;;;5.60;3.80;;;;;;;25.51;43.92;100381.80;105951;1257;60544;-90
2023/07/23 10:28:58;;;;;;;5.10;3.60;;;;;;;25.62;43.38;100382.56;106873;1254;60315;-87
2023/07/23 10:31:29;;;;;;;6.10;3.60;;;;;;;25.68;43.13;100379.10;106570;1259;64881;-89
2023/07/23 10:33:57;;;;;;;6.10;3.70;;;;;;;25.76;43.26;100378.35;106744;1254;61458;-86
2023/07/23 10:36:24;;;;;;;5.40;3.50;;;;;;;25.84;42.34;100378.15;106898;1254;63706;-86
2023/07/23 10:39:16;;;;;;;5.50;3.50;;;;;;;25.88;43.04;100380.59;108231;1254;58938;-90
2023/07/23 10:41:53;;;;;;;5.40;3.70;;;;;;;25.95;42.20;100384.40;106500;1254;60416;-84
2023/07/23 10:44:25;;;;;;;6.30;3.80;;;;;;;25.95;41.71;100381.04;105968;1259;63650;-82
2023/07/23 10:46:53;;;;;;;5.90;3.70;;;;;;;25.90;42.06;100381.48;106990;1259;60345;-85
2023/07/23 10:49:22;;;;;;;7.10;3.50;;;;;;;25.91;42.05;100387.37;107928;1254;63738;-86
2023/07/23 10:51:53;;;;;;;8.70;3.30;;;;;;;25.90;41.84;100387.33;108512;1253;59286;-85
2023/07/23 10:54:21;;;;;;;5.10;3.20;;;;;;;25.91;41.71;100385.00;108524;1254;60452;-85
2023/07/23 10:56:50;;;;;;;5.10;3.10;;;;;;;25.98;42.08;100382.73;109034;1255;63653;-86
2023/07/23 10:59:21;;;;;;;6.80;3.90;;;;;;;26.09;41.07;100384.41;109165;1252;60895;-86
2023/07/23 11:01:49;;;;;;;5.30;3.50;;;;;;;26.17;41.33;100385.77;109309;1253;62494;-84
2023/07/23 11:04:26;;;;;;;7.10;3.70;;;;;;;26.26;41.22;100390.09;109333;1253;58664;-85
2023/07/23 11:06:57;;;;;;;6.00;3.30;;;;;;;26.30;39.57;100389.06;106795;1254;60354;-88
2023/07/23 11:09:26;;;;;;;6.60;3.50;;;;;;;26.26;39.22;100384.63;106944;1256;64855;-84
2023/07/23 11:11:54;;;;;;;5.70;3.40;;;;;;;26.20;39.37;100388.92;107422;1254;61372;-87
2023/07/23 11:14:28;;;;;;;5.80;3.30;;;;;;;26.15;39.20;100390.81;106927;1257;64147;-85
2023/07/23 11:16:57;;;;;;;7.10;3.40;;;;;;;26.17;39.15;100393.86;106879;1252;60604;-87
2023/07/23 11:19:25;;;;;;;5.60;3.60;;;;;;;26.21;38.43;100387.67;106194;1258;60367;-88
2023/07/23 11:21:56;;;;;;;6.90;3.70;;;;;;;26.24;38.52;100385.71;105925;1258;64939;-89
2023/07/23 11:24:27;;;;;;;5.90;3.70;;;;;;;26.30;38.71;100383.73;106546;1259;60284;-86
2023/07/23 11:26:59;;;;;;;5.00;2.70;;;;;;;26.40;36.89;100378.87;105927;1259;62555;-85
2023/07/23 11:29:27;;;;;;;6.10;3.00;;;;;;;26.49;33.83;100377.77;106159;1254;61912;-88
2023/07/23 11:32:00;;;;;;;5.50;3.40;;;;;;;26.54;33.54;100375.75;106290;1258;60576;-87
2023/07/23 11:34:27;;;;;;;6.00;3.50;;;;;;;26.57;33.47;100375.48;106529;1254;63660;-88
2023/07/23 11:36:55;;;;;;;5.70;3.30;;;;;;;26.56;33.72;100381.41;106132;1253;60445;-83
2023/07/23 11:39:26;;;;;;;7.00;3.10;;;;;;;26.53;34.29;100382.79;107805;1256;63821;-83
2023/07/23 11:41:54;;;;;;;6.30;3.10;;;;;;;26.52;34.67;100379.97;107646;1253;60315;-84
2023/07/23 11:44:21;;;;;;;5.50;3.10;;;;;;;26.59;34.19;100376.64;106121;1256;60514;-86
2023/07/23 11:46:49;;;;;;;6.20;3.10;;;;;;;26.69;33.73;100377.94;105785;1256;64910;-92
2023/07/23 11:49:17;;;;;;;7.70;3.10;;;;;;;26.79;32.78;100373.40;106364;1257;61320;-92
2023/07/23 11:51:44;;;;;;;5.30;3.40;;;;;;;26.88;32.31;100371.21;105987;1256;63767;-85